West Essex Park Conservancy

Temperature/Humidity/Waterlevel monitor

--new router f,   32,  0,  0.0  14      0
,   32,  0,  0.0   0      0
,   32,  0,  0.0   0      0
09-28 09:45  Fd   Fr   %    Z  mov    seq 
06-24 11:34:52,   34, 86,  0.0   0      0
06-24 11:14:07,   34, 74, 1270.2 255  20735
06-24 10:53:37,   34, 62, 1270.2 255  20735
06-24 10:33:08,   34, 46, 1270.2 255  21759
06-24 10:12:40,   34, 35, 1270.2 255  22783
06-24 09:52:06,   34, 23, 1270.2 255  23807
06-24 09:31:38,   34, 11, 1270.2 255  23807
06-24 09:11:08,   34,  0, 1270.2 255  21759
06-24 08:50:41,   34, 86, 1270.2 255  20735
06-24 08:30:09,   34, 74, 1347.3 207  62799
06-24 08:09:27,   34, 63,  0.0   0      0
06-24 07:48:40,   34, 51, 1270.2 255  21759
06-24 07:28:08,   34, 35, 1270.2 255  21759
06-24 07:07:39,   34, 23, 1270.2 255  21759
06-24 06:47:11,   34, 12, 1270.2 255  21759
06-24 06:26:42,   34,  0, 1270.2 255  23807
06-24 06:06:06,   34, 87,  0.0   0      0
06-24 05:45:21,   34, 75,  0.0   0      0
06-24 05:24:36,   34, 63, 1270.2 255  23807
06-24 05:04:08,   34, 51, 1270.2 255  23807
06-24 04:43:39,   34, 36, 278.0  95  62735
06-24 04:22:57,   34, 24, 1270.2 255  21759
06-24 04:02:28,   34, 12,  0.0   0      0
06-24 03:41:42,   34,  0, 278.0  63  62927
06-24 03:20:59,   34, 87, 73.2 223  62927
06-24 03:00:24,   34, 75, 1270.2 255  22783
06-24 02:39:52,   34, 64, 1270.2 255  22783
06-24 02:19:24,   34, 52, 1270.2 255  23807
06-24 01:58:55,   34, 36, 937.7 111  62991
06-24 01:38:11,   34, 24, 1270.2 255  22783
06-24 01:17:42,   34, 12,  0.0   0      0
06-24 00:56:56,   34,  1,  0.0   0      0
06-24 00:36:11,   34, 87, 1270.2 255  24831
06-24 00:15:44,   34, 76, 1552.1  63  62927
06-23 23:55:02,   34, 64, 1270.2 255  24831
06-23 23:34:28,   34, 52, 1302.0 159  62863
06-23 23:13:49,   34, 36, 1270.2 255  25855


Go to the West Essex Park Conservancy birding log .